createdAt,value
2018-08-06T00:01:05.909Z,3.35
2018-08-06T00:03:37.663Z,5.28
2018-08-06T00:06:09.218Z,5.15
2018-08-06T00:08:40.728Z,3.72
2018-08-06T00:11:12.216Z,3.22
2018-08-06T00:13:43.747Z,5.20
2018-08-06T00:16:15.348Z,3.70
2018-08-06T00:18:46.797Z,3.37
2018-08-06T00:21:18.303Z,3.80
2018-08-06T00:23:49.783Z,4.08
2018-08-06T00:26:21.797Z,5.53
2018-08-06T00:28:53.035Z,5.40
2018-08-06T00:31:24.392Z,3.90
2018-08-06T00:33:55.852Z,3.50
2018-08-06T00:38:58.218Z,2.60
2018-08-06T00:41:29.773Z,4.00
2018-08-06T00:44:01.284Z,4.42
2018-08-06T00:46:32.758Z,4.95
2018-08-06T00:49:04.740Z,4.03
2018-08-06T00:51:36.213Z,3.17
2018-08-06T00:54:07.683Z,3.27
2018-08-06T00:56:39.220Z,3.00
2018-08-06T00:59:10.774Z,2.98
2018-08-06T01:01:42.313Z,3.50
2018-08-06T01:04:13.788Z,5.22
2018-08-06T01:06:45.232Z,2.95
2018-08-06T01:09:16.746Z,2.92
2018-08-06T01:11:48.387Z,2.77
2018-08-06T01:14:19.757Z,3.40
2018-08-06T01:16:51.420Z,3.08
2018-08-06T01:19:22.805Z,5.47
2018-08-06T01:21:54.393Z,2.90
2018-08-06T01:24:25.745Z,4.08
2018-08-06T01:26:57.044Z,2.47
2018-08-06T01:29:28.608Z,3.00
2018-08-06T01:31:59.894Z,3.25
2018-08-06T01:37:02.545Z,2.70
2018-08-06T01:39:34.219Z,2.85
2018-08-06T01:42:05.699Z,3.45
2018-08-06T01:44:37.418Z,2.33
2018-08-06T01:47:08.903Z,2.98
2018-08-06T01:49:40.389Z,4.03
2018-08-06T01:52:11.864Z,2.25
2018-08-06T01:57:14.224Z,3.05
2018-08-06T01:59:45.719Z,2.90
2018-08-06T02:02:17.223Z,3.25
2018-08-06T02:04:48.710Z,3.42
2018-08-06T02:07:20.322Z,3.50
2018-08-06T02:09:51.806Z,2.10
2018-08-06T02:12:23.375Z,2.00
2018-08-06T02:14:54.785Z,2.65
2018-08-06T02:17:26.322Z,2.27
2018-08-06T02:19:57.854Z,1.87
2018-08-06T02:24:59.775Z,2.02
2018-08-06T02:27:31.437Z,3.30
2018-08-06T02:30:02.758Z,2.55
2018-08-06T02:32:33.728Z,2.10
2018-08-06T02:35:05.152Z,2.70
2018-08-06T02:37:36.722Z,2.10
2018-08-06T02:40:11.202Z,2.30
2018-08-06T02:42:43.309Z,2.42
2018-08-06T02:45:14.717Z,2.20
2018-08-06T02:47:46.402Z,3.12
2018-08-06T02:50:17.911Z,1.80
2018-08-06T02:52:49.453Z,2.80
2018-08-06T02:55:20.818Z,2.00
2018-08-06T03:00:23.222Z,2.42
2018-08-06T03:02:54.765Z,2.80
2018-08-06T03:05:26.229Z,2.72
2018-08-06T03:07:57.718Z,3.15
2018-08-06T03:10:29.300Z,2.12
2018-08-06T03:13:00.753Z,2.62
2018-08-06T03:15:32.282Z,2.92
2018-08-06T03:18:03.749Z,2.15
2018-08-06T03:20:35.382Z,2.02
2018-08-06T03:23:06.863Z,4.08
2018-08-06T03:28:08.972Z,2.42
2018-08-06T03:30:40.574Z,2.22
2018-08-06T03:33:11.985Z,1.80
2018-08-06T03:35:43.603Z,1.80
2018-08-06T03:38:15.725Z,2.00
2018-08-06T03:40:47.327Z,1.70
2018-08-06T03:43:18.819Z,2.05
2018-08-06T03:48:21.008Z,1.60
2018-08-06T03:50:52.680Z,1.42
2018-08-06T03:53:24.200Z,1.70
2018-08-06T03:55:55.709Z,2.02
2018-08-06T03:58:27.308Z,1.42
2018-08-06T04:00:58.692Z,1.70
2018-08-06T04:03:30.859Z,2.40
2018-08-06T04:08:34.207Z,1.85
2018-08-06T04:11:06.553Z,1.52
2018-08-06T04:13:38.283Z,2.00
2018-08-06T04:16:10.316Z,2.42
2018-08-06T04:18:41.853Z,1.62
2018-08-06T04:23:44.220Z,3.42
2018-08-06T04:29:05.884Z,2.08
2018-08-06T04:34:09.228Z,5.60
2018-08-06T04:36:40.736Z,3.10
2018-08-06T04:39:12.319Z,2.62
2018-08-06T04:41:43.748Z,2.50
2018-08-06T04:44:15.333Z,3.50
2018-08-06T04:46:46.887Z,3.80
2018-08-06T04:51:49.077Z,4.53
2018-08-06T04:54:20.661Z,2.40
2018-08-06T04:56:52.220Z,2.72
2018-08-06T04:59:23.692Z,1.90
2018-08-06T05:01:55.241Z,2.67
2018-08-06T05:04:26.864Z,1.57
2018-08-06T05:09:33.224Z,3.17
2018-08-06T05:12:04.698Z,3.90
2018-08-06T05:14:36.684Z,1.87
2018-08-06T05:17:08.686Z,1.70
2018-08-06T05:19:40.335Z,3.08
2018-08-06T05:22:11.832Z,1.85
2018-08-06T05:27:14.223Z,3.30
2018-08-06T05:29:45.736Z,1.62
2018-08-06T05:32:16.814Z,1.62
2018-08-06T05:34:48.234Z,2.30
2018-08-06T05:37:19.814Z,1.67
2018-08-06T05:39:51.777Z,2.30
2018-08-06T05:42:23.663Z,1.40
2018-08-06T05:44:55.211Z,2.05
2018-08-06T05:47:26.899Z,1.50
2018-08-06T05:52:29.390Z,2.37
2018-08-06T05:55:01.212Z,1.50
2018-08-06T05:57:32.751Z,1.60
2018-08-06T06:00:04.312Z,2.12
2018-08-06T06:02:35.916Z,1.67
2018-08-06T06:05:07.527Z,1.65
2018-08-06T06:07:39.234Z,3.17
2018-08-06T06:10:14.750Z,2.33
2018-08-06T06:12:46.670Z,1.75
2018-08-06T06:15:18.787Z,1.98
2018-08-06T06:17:50.313Z,4.20
2018-08-06T06:20:21.790Z,2.62
2018-08-06T06:25:25.733Z,2.40
2018-08-06T06:27:57.320Z,2.75
2018-08-06T06:30:28.927Z,3.08
2018-08-06T06:33:01.216Z,2.25
2018-08-06T06:35:32.737Z,2.20
2018-08-06T06:38:04.308Z,2.08
2018-08-06T06:40:35.726Z,2.98
2018-08-06T06:43:07.314Z,1.40
2018-08-06T06:45:38.796Z,2.77
2018-08-06T06:48:10.233Z,2.25
2018-08-06T06:50:41.763Z,2.40
2018-08-06T06:53:13.419Z,1.70
2018-08-06T06:55:44.778Z,4.10
2018-08-06T06:58:16.298Z,1.55
2018-08-06T07:00:47.818Z,1.57
2018-08-06T07:05:50.232Z,4.20
2018-08-06T07:08:21.857Z,1.82
2018-08-06T07:13:24.211Z,1.22
2018-08-06T07:15:55.770Z,2.42
2018-08-06T07:18:27.589Z,3.08
2018-08-06T07:20:58.872Z,1.60
2018-08-06T07:26:01.887Z,1.62
2018-08-06T07:31:04.218Z,1.45
2018-08-06T07:33:35.899Z,3.65
2018-08-06T07:36:07.693Z,1.62
2018-08-06T07:38:39.400Z,2.02
2018-08-06T07:41:11.223Z,2.27
2018-08-06T07:43:42.741Z,1.05
2018-08-06T07:46:14.368Z,1.20
2018-08-06T07:48:46.219Z,1.95
2018-08-06T07:51:17.791Z,2.35
2018-08-06T07:53:49.295Z,1.30
2018-08-06T07:56:20.752Z,1.65
2018-08-06T07:58:52.790Z,2.12
2018-08-06T08:01:24.446Z,1.97
2018-08-06T08:03:56.305Z,1.10
2018-08-06T08:06:27.894Z,1.20
2018-08-06T08:11:30.663Z,1.95
2018-08-06T08:14:02.376Z,1.92
2018-08-06T08:16:33.744Z,1.30
2018-08-06T08:19:05.647Z,1.32
2018-08-06T08:21:37.329Z,1.37
2018-08-06T08:24:08.846Z,2.65
2018-08-06T08:29:11.309Z,1.22
2018-08-06T08:31:42.832Z,1.35
2018-08-06T08:36:45.732Z,1.60
2018-08-06T08:39:17.510Z,1.07
2018-08-06T08:41:49.223Z,1.82
2018-08-06T08:44:20.752Z,1.02
2018-08-06T08:46:52.312Z,1.20
2018-08-06T08:49:23.802Z,1.30
2018-08-06T08:54:27.224Z,1.30
2018-08-06T08:56:58.870Z,1.87
2018-08-06T09:02:00.222Z,2.20
2018-08-06T09:04:31.757Z,1.05
2018-08-06T09:07:03.440Z,1.20
2018-08-06T09:09:34.857Z,2.65
2018-08-06T09:14:37.218Z,1.37
2018-08-06T09:17:09.814Z,1.30
2018-08-06T09:22:12.222Z,1.25
2018-08-06T09:24:43.797Z,1.17
2018-08-06T09:27:15.462Z,2.40
2018-08-06T09:29:46.890Z,2.50
2018-08-06T09:34:48.973Z,3.58
2018-08-06T09:37:20.640Z,1.95
2018-08-06T09:39:52.207Z,3.08
2018-08-06T09:42:23.708Z,1.70
2018-08-06T09:44:55.790Z,1.00
2018-08-06T09:47:27.393Z,1.20
2018-08-06T09:49:58.845Z,1.45
2018-08-06T09:55:02.738Z,0.80
2018-08-06T09:57:35.202Z,1.07
2018-08-06T10:00:15.300Z,0.85
2018-08-06T10:02:47.329Z,0.93
2018-08-06T10:05:19.390Z,1.10
2018-08-06T10:07:50.744Z,1.07
2018-08-06T10:10:22.607Z,1.20
2018-08-06T10:12:54.224Z,1.00
2018-08-06T10:15:25.742Z,0.70
2018-08-06T10:17:57.316Z,1.00
2018-08-06T10:20:28.255Z,0.88
2018-08-06T10:22:59.737Z,5.58
2018-08-06T10:25:31.359Z,0.80
2018-08-06T10:28:02.983Z,1.10
2018-08-06T10:33:15.808Z,1.77
2018-08-06T10:35:47.200Z,3.00
2018-08-06T10:38:18.798Z,1.12
2018-08-06T10:40:50.380Z,1.50
2018-08-06T10:43:21.837Z,1.30
2018-08-06T10:48:24.023Z,0.80
2018-08-06T10:50:55.831Z,1.50
2018-08-06T10:55:58.249Z,1.50
2018-08-06T10:58:29.672Z,1.82
2018-08-06T11:01:01.223Z,1.55
2018-08-06T11:03:32.651Z,1.20
2018-08-06T11:06:04.438Z,1.50
2018-08-06T11:08:36.188Z,1.30
2018-08-06T11:11:07.713Z,1.70
2018-08-06T11:13:39.428Z,0.90
2018-08-06T11:16:10.910Z,1.00
2018-08-06T11:18:42.389Z,0.80
2018-08-06T11:21:13.748Z,1.20
2018-08-06T11:23:44.863Z,0.90
2018-08-06T11:28:47.206Z,1.00
2018-08-06T11:31:21.762Z,0.90
2018-08-06T11:33:53.616Z,1.17
2018-08-06T11:36:24.705Z,3.05
2018-08-06T11:38:55.861Z,2.62
2018-08-06T11:43:57.892Z,0.90
2018-08-06T11:48:59.962Z,0.85
2018-08-06T11:51:31.401Z,1.25
2018-08-06T11:54:02.817Z,1.12
2018-08-06T11:59:05.086Z,0.82
2018-08-06T12:01:36.525Z,2.02
2018-08-06T12:04:08.223Z,1.00
2018-08-06T12:06:39.716Z,1.17
2018-08-06T12:09:11.737Z,0.70
2018-08-06T12:11:42.933Z,1.70
2018-08-06T12:14:14.044Z,2.92
2018-08-06T12:16:45.720Z,1.00
2018-08-06T12:19:17.226Z,1.00
2018-08-06T12:21:48.705Z,1.37
2018-08-06T12:24:20.397Z,2.33
2018-08-06T12:26:51.756Z,1.52
2018-08-06T12:29:23.038Z,2.77
2018-08-06T12:31:54.692Z,1.30
2018-08-06T12:34:26.221Z,1.37
2018-08-06T12:36:57.766Z,1.80
2018-08-06T12:39:28.809Z,0.93
2018-08-06T12:47:09.017Z,1.92
2018-08-06T12:49:40.665Z,0.88
2018-08-06T12:52:12.059Z,1.32
2018-08-06T12:54:43.755Z,0.90
2018-08-06T12:57:15.334Z,2.47
2018-08-06T12:59:46.912Z,3.25
2018-08-06T13:02:18.681Z,2.00
2018-08-06T13:05:01.575Z,1.20
2018-08-06T13:10:16.604Z,3.12
2018-08-06T13:12:58.838Z,1.15
2018-08-06T13:18:01.755Z,0.90
2018-08-06T13:20:32.623Z,1.12
2018-08-06T13:23:03.748Z,1.57
2018-08-06T13:25:34.981Z,1.45
2018-08-06T13:28:05.894Z,0.98
2018-08-06T13:33:07.840Z,1.70
2018-08-06T13:38:09.595Z,0.88
2018-08-06T13:40:40.770Z,1.52
2018-08-06T13:43:11.634Z,1.00
2018-08-06T13:45:42.587Z,2.25
2018-08-06T13:54:03.819Z,0.82
2018-08-06T13:59:05.765Z,0.90
2018-08-06T14:01:36.912Z,0.82
2018-08-06T14:04:07.835Z,1.30
2018-08-06T14:09:12.616Z,1.85
2018-08-06T14:11:43.735Z,1.20
2018-08-06T14:14:14.991Z,1.12
2018-08-06T14:16:46.278Z,1.00
2018-08-06T14:19:17.860Z,0.90
2018-08-06T14:24:20.018Z,3.05
2018-08-06T14:26:51.506Z,1.30
2018-08-06T14:29:23.208Z,1.35
2018-08-06T14:32:01.615Z,1.47
2018-08-06T14:34:33.228Z,1.60
2018-08-06T14:37:04.765Z,1.65
2018-08-06T14:39:36.209Z,1.87
2018-08-06T14:42:07.700Z,0.80
2018-08-06T14:44:39.590Z,1.10
2018-08-06T14:47:11.220Z,1.10
2018-08-06T14:49:42.644Z,2.58
2018-08-06T14:52:14.351Z,1.12
2018-08-06T14:54:45.834Z,1.22
2018-08-06T14:59:48.233Z,1.57
2018-08-06T15:02:19.752Z,1.30
2018-08-06T15:04:51.455Z,1.40
2018-08-06T15:07:22.900Z,0.93
2018-08-06T15:12:25.206Z,1.17
2018-08-06T15:14:56.713Z,0.82
2018-08-06T15:17:28.233Z,0.75
2018-08-06T15:20:01.745Z,1.37
2018-08-06T15:22:44.736Z,0.88
2018-08-06T15:25:21.360Z,0.90
2018-08-06T15:27:53.201Z,1.00
2018-08-06T15:30:25.581Z,1.77
2018-08-06T15:32:58.082Z,1.12
2018-08-06T15:35:29.697Z,1.07
2018-08-06T15:38:01.978Z,0.80
2018-08-06T15:40:33.475Z,0.65
2018-08-06T15:43:05.004Z,1.45
2018-08-06T15:45:36.629Z,1.30
2018-08-06T15:48:07.821Z,0.90
2018-08-06T15:53:09.924Z,2.50
2018-08-06T15:55:41.375Z,0.88
2018-08-06T15:58:12.853Z,0.72
2018-08-06T16:00:44.473Z,0.70
2018-08-06T16:03:16.009Z,0.80
2018-08-06T16:05:47.419Z,0.90
2018-08-06T16:08:18.839Z,0.80
2018-08-06T16:13:20.889Z,1.00
2018-08-06T16:18:23.444Z,1.17
2018-08-06T16:20:55.221Z,1.00
2018-08-06T16:23:26.722Z,1.07
2018-08-06T16:25:58.225Z,1.17
2018-08-06T16:28:29.757Z,2.65
2018-08-06T16:31:01.507Z,1.12
2018-08-06T16:33:33.592Z,2.75
2018-08-06T16:36:05.233Z,1.30
2018-08-06T16:38:36.703Z,1.00
2018-08-06T16:41:08.385Z,1.20
2018-08-06T16:43:39.871Z,1.30
2018-08-06T16:48:43.252Z,0.82
2018-08-06T16:51:14.732Z,2.47
2018-08-06T16:53:46.207Z,0.90
2018-08-06T16:56:17.709Z,0.93
2018-08-06T16:58:49.001Z,1.10
2018-08-06T17:01:20.665Z,1.85
2018-08-06T17:03:52.241Z,0.90
2018-08-06T17:06:23.715Z,1.20
2018-08-06T17:08:55.226Z,1.77
2018-08-06T17:11:26.728Z,0.80
2018-08-06T17:13:58.314Z,2.02
2018-08-06T17:16:42.697Z,1.72
2018-08-06T17:19:14.453Z,5.25
2018-08-06T17:21:45.881Z,1.00
2018-08-06T17:27:02.922Z,1.02
2018-08-06T17:29:33.976Z,1.00
2018-08-06T17:32:04.999Z,1.30
2018-08-06T18:15:01.460Z,3.52
2018-08-06T18:17:32.492Z,8.15
2018-08-06T18:20:03.519Z,4.20
2018-08-06T18:22:34.626Z,9.10
2018-08-06T18:25:07.427Z,5.60
2018-08-06T18:27:38.797Z,5.62
2018-08-06T18:30:14.882Z,3.40
2018-08-06T18:35:17.855Z,7.65
2018-08-06T18:40:20.760Z,3.92
2018-08-06T18:42:51.828Z,2.85
2018-08-06T18:47:53.782Z,5.53
2018-08-06T18:50:24.914Z,5.03
2018-08-06T18:52:56.304Z,3.40
2018-08-06T18:55:27.627Z,6.03
2018-08-06T18:57:58.749Z,5.15
2018-08-06T19:00:29.799Z,4.03
2018-08-06T19:03:00.896Z,6.70
2018-08-06T19:08:02.600Z,4.05
2018-08-06T19:10:33.740Z,5.25
2018-08-06T19:13:10.220Z,3.90
2018-08-06T19:15:41.768Z,5.97
2018-08-06T19:19:20.044Z,5.85
2018-08-06T19:21:52.333Z,5.42
2018-08-06T19:24:28.576Z,5.67
2018-08-06T19:26:59.645Z,5.53
2018-08-06T19:29:30.775Z,5.17
2018-08-06T19:32:02.357Z,2.80
2018-08-06T19:34:33.806Z,4.70
2018-08-06T19:37:10.021Z,4.10
2018-08-06T19:39:41.462Z,6.37
2018-08-06T19:42:12.823Z,9.05
2018-08-06T19:47:15.204Z,5.17
2018-08-06T19:49:51.434Z,5.62
2018-08-06T19:52:23.744Z,4.92
2018-08-06T19:54:59.656Z,6.20
2018-08-06T19:57:31.193Z,6.00
2018-08-06T20:00:02.827Z,8.08
2018-08-06T20:08:14.588Z,7.35
2018-08-06T20:10:45.718Z,5.22
2018-08-06T20:13:23.208Z,5.22
2018-08-06T20:18:41.218Z,4.17
2018-08-06T20:21:12.470Z,5.87
2018-08-06T20:23:43.671Z,6.37
2018-08-06T20:26:14.755Z,3.47
2018-08-06T20:28:45.619Z,6.47
2018-08-06T20:31:16.494Z,4.20
2018-08-06T20:33:47.748Z,6.67
2018-08-06T20:36:18.860Z,7.62
2018-08-06T20:41:20.861Z,4.80
2018-08-06T20:46:29.624Z,3.70
2018-08-06T20:49:00.748Z,4.90
2018-08-06T20:51:31.875Z,4.53
2018-08-06T20:56:33.647Z,3.35
2018-08-06T20:59:04.710Z,3.40
2018-08-06T21:07:45.616Z,4.60
2018-08-06T21:10:17.567Z,3.20
2018-08-06T21:15:37.781Z,2.37
2018-08-06T21:18:09.275Z,4.17
2018-08-06T21:20:40.594Z,6.37
2018-08-06T21:23:11.723Z,3.55
2018-08-06T21:25:43.312Z,2.87
2018-08-06T21:28:14.619Z,2.95
2018-08-06T21:30:45.798Z,2.90
2018-08-06T21:33:16.869Z,4.83
2018-08-06T21:38:18.625Z,2.60
2018-08-06T21:40:49.710Z,4.72
2018-08-06T21:43:20.828Z,2.37
2018-08-06T21:48:22.573Z,2.17
2018-08-06T21:50:53.676Z,2.25
2018-08-06T21:53:24.714Z,2.92
2018-08-06T21:55:55.705Z,4.15
2018-08-06T21:58:26.688Z,3.52
2018-08-06T22:00:57.717Z,4.08
2018-08-06T22:03:28.811Z,2.77
2018-08-06T22:05:59.840Z,2.50
2018-08-06T22:11:01.582Z,2.05
2018-08-06T22:13:32.711Z,1.62
2018-08-06T22:16:03.716Z,3.22
2018-08-06T22:18:35.191Z,2.42
2018-08-06T22:21:11.551Z,1.60
2018-08-06T22:23:42.670Z,2.52
2018-08-06T22:26:13.766Z,3.15
2018-08-06T22:28:44.716Z,3.12
2018-08-06T22:31:15.717Z,3.17
2018-08-06T22:33:46.847Z,2.00
2018-08-06T22:38:55.500Z,1.82
2018-08-06T22:41:26.642Z,2.95
2018-08-06T22:43:57.708Z,2.00
2018-08-06T22:46:29.359Z,1.90
2018-08-06T22:49:00.645Z,2.67
2018-08-06T22:51:38.656Z,2.72
2018-08-06T22:54:09.700Z,3.05
2018-08-06T22:56:40.730Z,1.70
2018-08-06T22:59:11.850Z,1.45
2018-08-06T23:04:13.672Z,3.37
2018-08-06T23:06:44.801Z,4.30
2018-08-06T23:09:16.051Z,3.20
2018-08-06T23:11:47.550Z,2.47
2018-08-06T23:14:18.775Z,2.33
2018-08-06T23:16:50.305Z,2.10
2018-08-06T23:19:21.740Z,1.98
2018-08-06T23:21:54.320Z,2.05
2018-08-06T23:24:25.793Z,2.87
2018-08-06T23:26:57.278Z,1.75
2018-08-06T23:31:21.312Z,1.90
2018-08-06T23:33:52.571Z,2.00
2018-08-06T23:36:23.686Z,2.33
2018-08-06T23:38:55.308Z,1.67
2018-08-06T23:41:26.453Z,2.67
2018-08-06T23:43:57.698Z,1.57
2018-08-06T23:46:28.733Z,2.27
2018-08-06T23:48:59.832Z,1.77
2018-08-06T23:54:01.657Z,1.70
2018-08-06T23:56:32.643Z,1.82
2018-08-06T23:59:03.665Z,1.90
